createdAt,value
2022-10-25T00:02:20.059Z,100998.91
2022-10-25T00:04:48.496Z,100976.72
2022-10-25T00:07:47.299Z,101007.59
2022-10-25T00:10:53.493Z,101013.28
2022-10-25T00:13:33.947Z,101007.94
2022-10-25T00:16:01.984Z,101011.94
2022-10-25T00:21:46.241Z,101015.59
2022-10-25T00:24:14.921Z,101025.31
2022-10-25T00:26:51.757Z,100998.72
2022-10-25T00:32:14.250Z,101013.91
2022-10-25T00:34:42.472Z,100989.56
2022-10-25T00:37:15.744Z,101013.91
2022-10-25T00:39:44.036Z,100989.38
2022-10-25T00:42:15.149Z,101013.22
2022-10-25T00:45:32.080Z,101007.88
2022-10-25T00:48:19.127Z,101013.38
2022-10-25T00:50:49.600Z,101020.25
2022-10-25T00:53:44.619Z,101024.44
2022-10-25T00:56:15.223Z,101002.09
2022-10-25T00:58:45.474Z,101023.94
2022-10-25T01:01:16.037Z,101021.63
2022-10-25T01:04:28.364Z,101019.94
2022-10-25T01:07:05.990Z,100999.25
2022-10-25T01:09:35.169Z,101025.31
2022-10-25T01:12:03.282Z,101018.41
2022-10-25T01:15:10.860Z,101031.31
2022-10-25T01:17:57.752Z,101012.91
2022-10-25T01:21:07.967Z,101024.97
2022-10-25T01:23:56.518Z,101024.63
2022-10-25T01:33:55.881Z,101022.44
2022-10-25T01:36:29.632Z,101018.28
2022-10-25T01:39:02.147Z,101022.47
2022-10-25T01:42:10.037Z,101012.94
2022-10-25T01:45:13.554Z,101027.63
2022-10-25T01:47:52.582Z,101025.31
2022-10-25T01:50:25.576Z,101028.13
2022-10-25T01:53:13.081Z,101034.97
2022-10-25T01:56:27.629Z,101030.78
2022-10-25T01:59:52.723Z,101028.47
2022-10-25T02:02:38.282Z,101031.97
2022-10-25T02:05:26.263Z,101042.28
2022-10-25T02:08:01.427Z,101010.22
2022-10-25T02:11:09.947Z,101033.59
2022-10-25T02:14:46.496Z,101010.34
2022-10-25T02:17:16.287Z,100998.91
2022-10-25T02:19:46.344Z,101026.00
2022-10-25T02:25:19.552Z,101010.81
2022-10-25T02:27:47.820Z,101040.72
2022-10-25T02:30:24.300Z,101004.78
2022-10-25T02:33:07.803Z,101016.38
2022-10-25T02:35:36.213Z,101037.25
2022-10-25T02:38:08.575Z,101030.56
2022-10-25T02:40:38.430Z,101027.72
2022-10-25T02:43:08.292Z,101021.88
2022-10-25T02:45:39.376Z,101037.56
2022-10-25T02:50:50.616Z,101029.53
2022-10-25T02:53:18.749Z,101014.47
2022-10-25T02:56:12.084Z,101013.47
2022-10-25T02:58:41.473Z,101022.13
2022-10-25T03:01:17.387Z,101031.31
2022-10-25T03:04:09.756Z,101009.13
2022-10-25T03:06:38.406Z,101029.31
2022-10-25T03:09:09.556Z,101030.50
2022-10-25T03:11:39.006Z,101023.28
2022-10-25T03:16:55.429Z,101022.59
2022-10-25T03:19:23.543Z,101025.28
2022-10-25T03:22:29.360Z,101019.94
2022-10-25T03:33:46.178Z,101014.19
2022-10-25T03:36:28.721Z,101030.09
2022-10-25T03:39:03.891Z,101045.41
2022-10-25T03:41:37.377Z,101035.38
2022-10-25T03:44:08.588Z,101028.38
2022-10-25T03:47:20.175Z,101032.38
2022-10-25T03:49:57.071Z,101023.34
2022-10-25T03:52:34.128Z,101038.03
2022-10-25T03:55:17.485Z,101032.66
2022-10-25T03:57:45.923Z,101040.97
2022-10-25T04:00:15.582Z,101027.97
2022-10-25T04:03:14.384Z,101041.16
2022-10-25T04:05:45.488Z,101036.97
2022-10-25T04:08:13.514Z,101035.81
2022-10-25T04:10:43.633Z,101023.59
2022-10-25T04:14:19.757Z,101037.47
2022-10-25T04:20:05.600Z,101029.66
2022-10-25T04:23:06.655Z,101036.31
2022-10-25T04:25:35.784Z,101028.31
2022-10-25T04:28:04.593Z,101039.53
2022-10-25T04:30:36.535Z,101035.34
2022-10-25T04:33:08.561Z,101038.31
2022-10-25T04:35:37.953Z,101022.06
2022-10-25T04:38:05.989Z,101026.94
2022-10-25T04:40:37.860Z,101031.28
2022-10-25T04:43:13.333Z,101029.13
2022-10-25T04:45:41.479Z,101032.66
2022-10-25T04:48:09.475Z,101044.66
2022-10-25T04:50:42.299Z,101056.81
2022-10-25T04:53:10.362Z,101018.91
2022-10-25T04:55:39.353Z,101045.84
2022-10-25T04:58:16.209Z,101044.38
2022-10-25T05:03:30.335Z,101028.38
2022-10-25T05:06:11.779Z,101031.72
2022-10-25T05:08:44.491Z,101034.72
2022-10-25T05:11:18.164Z,101035.75
2022-10-25T05:13:46.218Z,101044.44
2022-10-25T05:16:17.241Z,101033.78
2022-10-25T05:18:46.804Z,101036.94
2022-10-25T05:21:18.749Z,101021.44
2022-10-25T05:23:49.232Z,101037.81
2022-10-25T05:26:18.522Z,101026.84
2022-10-25T05:28:47.422Z,101020.63
2022-10-25T05:31:16.135Z,101032.78
2022-10-25T05:33:46.208Z,101020.78
2022-10-25T05:36:16.040Z,101013.09
2022-10-25T05:38:44.650Z,101022.13
2022-10-25T05:41:18.071Z,101023.41
2022-10-25T05:46:31.352Z,101022.91
2022-10-25T05:48:59.687Z,101015.72
2022-10-25T05:51:38.376Z,101019.88
2022-10-25T05:54:14.753Z,101032.56
2022-10-25T05:56:45.930Z,101015.72
2022-10-25T05:59:15.077Z,101022.72
2022-10-25T06:01:44.197Z,101030.72
2022-10-25T06:04:12.559Z,101014.53
2022-10-25T06:06:50.049Z,101024.91
2022-10-25T06:09:33.652Z,101020.72
2022-10-25T06:12:03.036Z,101030.03
2022-10-25T06:14:32.925Z,101023.34
2022-10-25T06:17:00.853Z,101012.97
2022-10-25T06:19:31.290Z,101022.66
2022-10-25T06:22:08.009Z,101022.94
2022-10-25T06:24:45.036Z,101028.09
2022-10-25T06:27:30.813Z,101024.94
2022-10-25T06:30:09.267Z,101026.59
2022-10-25T06:32:48.361Z,101022.59
2022-10-25T06:35:18.091Z,101024.47
2022-10-25T06:37:51.011Z,101021.31
2022-10-25T06:42:49.618Z,101026.72
2022-10-25T06:45:29.716Z,101026.13
2022-10-25T06:48:03.519Z,101026.50
2022-10-25T06:50:31.519Z,101017.41
2022-10-25T06:53:10.912Z,101024.91
2022-10-25T06:55:43.244Z,101014.91
2022-10-25T06:58:20.548Z,101023.91
2022-10-25T07:00:51.073Z,101024.91
2022-10-25T07:03:44.853Z,101014.72
2022-10-25T07:06:24.945Z,101018.88
2022-10-25T07:12:29.892Z,101032.88
2022-10-25T07:18:02.108Z,101013.66
2022-10-25T07:20:30.288Z,101029.22
2022-10-25T07:23:00.260Z,101033.91
2022-10-25T07:25:51.336Z,101037.56
2022-10-25T07:28:19.530Z,101032.91
2022-10-25T07:30:53.364Z,101025.91
2022-10-25T07:33:27.575Z,101040.94
2022-10-25T07:36:11.105Z,101022.91
2022-10-25T07:38:42.983Z,101045.94
2022-10-25T07:41:12.452Z,101039.75
2022-10-25T07:43:45.561Z,101044.97
2022-10-25T07:46:16.528Z,101050.63
2022-10-25T07:48:45.266Z,101047.66
2022-10-25T07:51:27.866Z,101047.50
2022-10-25T07:53:58.369Z,101044.63
2022-10-25T07:56:27.932Z,101062.88
2022-10-25T07:58:55.859Z,101042.97
2022-10-25T08:01:25.062Z,101056.69
2022-10-25T08:03:53.234Z,101050.16
2022-10-25T08:06:24.020Z,101052.34
2022-10-25T08:08:52.010Z,101048.66
2022-10-25T08:11:19.941Z,101049.88
2022-10-25T08:13:50.864Z,101044.16
2022-10-25T08:16:19.257Z,101051.03
2022-10-25T08:18:47.275Z,101060.34
2022-10-25T08:21:18.386Z,101052.69
2022-10-25T08:23:46.282Z,101053.84
2022-10-25T08:26:14.770Z,101049.19
2022-10-25T08:28:42.831Z,101049.66
2022-10-25T08:31:12.134Z,101056.00
2022-10-25T08:33:40.500Z,101052.50
2022-10-25T08:36:09.112Z,101061.19
2022-10-25T08:38:38.270Z,101062.03
2022-10-25T08:41:10.292Z,101061.72
2022-10-25T08:44:01.373Z,101061.34
2022-10-25T08:46:32.835Z,101063.00
2022-10-25T08:49:07.085Z,101058.34
2022-10-25T08:51:36.693Z,101064.69
2022-10-25T08:54:06.438Z,101054.28
2022-10-25T08:56:39.466Z,101054.63
2022-10-25T08:59:13.810Z,101044.59
2022-10-25T09:02:11.729Z,101045.25
2022-10-25T09:04:40.851Z,101028.88
2022-10-25T09:07:27.011Z,101048.38
2022-10-25T09:10:00.294Z,101052.19
2022-10-25T09:12:42.276Z,101042.53
2022-10-25T09:15:21.881Z,101031.84
2022-10-25T09:17:56.636Z,101054.84
2022-10-25T09:20:35.035Z,101016.44
2022-10-25T09:23:07.028Z,101023.81
2022-10-25T09:25:39.963Z,101044.28
2022-10-25T09:28:19.648Z,101039.59
2022-10-25T09:30:57.306Z,101028.84
2022-10-25T09:34:01.480Z,101010.44
2022-10-25T09:36:42.509Z,101023.47
2022-10-25T09:43:16.168Z,101035.28
2022-10-25T09:45:46.914Z,101025.56
2022-10-25T09:48:26.615Z,101033.28
2022-10-25T09:51:44.137Z,101042.06
2022-10-25T09:54:46.620Z,101044.47
2022-10-25T09:57:22.262Z,101032.59
2022-10-25T10:00:15.221Z,101014.06
2022-10-25T10:02:44.189Z,101021.72
2022-10-25T10:05:23.986Z,101013.97
2022-10-25T10:07:58.304Z,101022.50
2022-10-25T10:10:38.667Z,101014.59
2022-10-25T10:16:27.002Z,101011.19
2022-10-25T10:19:15.307Z,101012.16
2022-10-25T10:22:06.312Z,101017.25
2022-10-25T10:25:00.485Z,100975.38
2022-10-25T10:27:40.983Z,100977.97
2022-10-25T10:30:10.584Z,100989.53
2022-10-25T10:33:44.456Z,101004.16
2022-10-25T10:36:46.732Z,101008.56
2022-10-25T10:39:25.413Z,100977.50
2022-10-25T10:42:21.907Z,100982.50
2022-10-25T10:45:35.050Z,101001.34
2022-10-25T10:48:03.906Z,100989.19
2022-10-25T10:50:42.544Z,100975.53
2022-10-25T10:53:22.298Z,101014.50
2022-10-25T10:56:09.255Z,101005.00
2022-10-25T11:01:53.795Z,100972.91
2022-10-25T11:04:28.517Z,100985.31
2022-10-25T11:07:10.465Z,100989.88
2022-10-25T11:09:47.921Z,100991.50
2022-10-25T11:12:20.096Z,100989.88
2022-10-25T11:15:00.045Z,100966.28
2022-10-25T11:17:39.656Z,100985.19
2022-10-25T11:20:16.131Z,100976.34
2022-10-25T11:23:07.705Z,100977.56
2022-10-25T11:25:39.374Z,100978.00
2022-10-25T11:28:15.531Z,100965.09
2022-10-25T11:30:47.454Z,100963.63
2022-10-25T11:33:37.192Z,100930.22
2022-10-25T11:36:27.513Z,100948.50
2022-10-25T11:39:13.148Z,100946.44
2022-10-25T11:42:38.940Z,100944.47
2022-10-25T11:45:50.186Z,100939.53
2022-10-25T11:51:51.690Z,100940.88
2022-10-25T11:54:28.521Z,100908.94
2022-10-25T11:57:18.893Z,100918.31
2022-10-25T12:03:31.438Z,100916.06
2022-10-25T12:06:26.568Z,100913.75
2022-10-25T12:09:16.457Z,100917.13
2022-10-25T12:11:55.985Z,100919.66
2022-10-25T12:14:32.203Z,100879.66
2022-10-25T12:17:59.136Z,100908.28
2022-10-25T12:20:30.307Z,100902.06
2022-10-25T12:23:02.347Z,100863.31
2022-10-25T12:26:04.414Z,100894.81
2022-10-25T12:28:37.016Z,100869.31
2022-10-25T12:31:09.804Z,100888.56
2022-10-25T12:33:39.556Z,100889.59
2022-10-25T12:36:14.786Z,100888.38
2022-10-25T12:38:42.968Z,100880.28
2022-10-25T12:41:19.927Z,100872.22
2022-10-25T12:43:53.477Z,100873.06
2022-10-25T12:46:52.097Z,100869.34
2022-10-25T12:49:29.487Z,100864.56
2022-10-25T12:52:10.880Z,100857.09
2022-10-25T12:55:18.187Z,100838.47
2022-10-25T12:57:53.107Z,100831.66
2022-10-25T13:00:21.821Z,100834.97
2022-10-25T13:03:26.249Z,100826.69
2022-10-25T13:06:29.083Z,100827.53
2022-10-25T13:09:01.085Z,100820.47
2022-10-25T13:11:34.271Z,100827.09
2022-10-25T13:14:06.333Z,100830.84
2022-10-25T13:16:35.057Z,100826.28
2022-10-25T13:19:49.789Z,100819.44
2022-10-25T13:22:39.825Z,100820.06
2022-10-25T13:25:17.443Z,100817.59
2022-10-25T13:28:18.629Z,100806.41
2022-10-25T13:30:48.239Z,100808.03
2022-10-25T13:33:33.669Z,100805.34
2022-10-25T13:36:19.795Z,100800.56
2022-10-25T13:38:47.998Z,100803.88
2022-10-25T13:41:17.032Z,100799.34
2022-10-25T13:44:07.202Z,100797.66
2022-10-25T13:46:39.127Z,100796.84
2022-10-25T13:49:28.908Z,100794.13
2022-10-25T13:52:03.019Z,100765.69
2022-10-25T13:54:48.334Z,100786.66
2022-10-25T13:57:50.978Z,100794.91
2022-10-25T14:00:40.373Z,100783.06
2022-10-25T14:04:08.018Z,100725.50
2022-10-25T14:06:48.027Z,100763.56
2022-10-25T14:09:30.879Z,100752.16
2022-10-25T14:12:11.915Z,100747.22
2022-10-25T14:14:53.503Z,100760.47
2022-10-25T14:17:24.618Z,100754.47
2022-10-25T14:19:54.834Z,100739.13
2022-10-25T14:22:31.906Z,100747.78
2022-10-25T14:25:08.915Z,100748.19
2022-10-25T14:27:40.353Z,100721.19
2022-10-25T14:30:41.650Z,100715.44
2022-10-25T14:36:21.374Z,100736.06
2022-10-25T14:39:31.314Z,100682.19
2022-10-25T14:42:18.414Z,100717.41
2022-10-25T14:44:50.191Z,100689.22
2022-10-25T14:47:30.153Z,100701.00
2022-10-25T14:50:29.569Z,100699.19
2022-10-25T14:53:17.735Z,100695.84
2022-10-25T14:55:57.895Z,100661.03
2022-10-25T14:58:26.436Z,100691.69
2022-10-25T15:01:01.055Z,100667.25
2022-10-25T15:03:36.897Z,100677.22
2022-10-25T15:06:07.364Z,100658.56
2022-10-25T15:09:41.093Z,100680.13
2022-10-25T15:12:08.374Z,100654.47
2022-10-25T15:14:36.897Z,100669.00
2022-10-25T15:17:26.220Z,100636.28
2022-10-25T15:20:06.869Z,100642.13
2022-10-25T15:22:43.749Z,100633.84
2022-10-25T15:28:32.225Z,100624.16
2022-10-25T15:31:04.801Z,100603.44
2022-10-25T15:33:38.617Z,100617.31
2022-10-25T15:36:14.535Z,100610.25
2022-10-25T15:39:06.251Z,100598.28
2022-10-25T15:41:33.933Z,100596.25
2022-10-25T15:44:07.166Z,100578.25
2022-10-25T15:46:36.768Z,100590.91
2022-10-25T15:49:55.176Z,100589.63
2022-10-25T15:54:29.616Z,100554.88
2022-10-25T15:56:48.503Z,100558.19
2022-10-25T15:59:44.027Z,100569.78
2022-10-25T16:02:59.416Z,100557.34
2022-10-25T16:05:28.603Z,100535.00
2022-10-25T16:10:39.076Z,100561.88
2022-10-25T16:13:14.623Z,100560.38
2022-10-25T16:15:57.707Z,100546.34
2022-10-25T16:18:28.404Z,100561.84
2022-10-25T16:20:58.198Z,100566.38
2022-10-25T16:23:28.561Z,100539.09
2022-10-25T16:25:56.702Z,100550.25
2022-10-25T16:30:57.767Z,100534.53
2022-10-25T16:33:26.079Z,100531.84
2022-10-25T16:35:54.116Z,100534.75
2022-10-25T16:38:22.533Z,100537.66
2022-10-25T16:40:52.515Z,100541.34
2022-10-25T16:43:20.558Z,100518.81
2022-10-25T16:46:51.434Z,100528.75
2022-10-25T16:49:23.074Z,100510.94
2022-10-25T16:52:19.984Z,100524.59
2022-10-25T16:55:01.538Z,100510.59
2022-10-25T16:57:29.648Z,100510.59
2022-10-25T16:59:58.300Z,100504.38
2022-10-25T17:06:16.606Z,100489.25
2022-10-25T17:08:55.078Z,100490.47
2022-10-25T17:12:39.007Z,100486.56
2022-10-25T17:17:57.391Z,100477.84
2022-10-25T17:20:25.582Z,100491.13
2022-10-25T17:23:33.492Z,100479.97
2022-10-25T17:26:05.646Z,100483.28
2022-10-25T17:28:35.736Z,100486.59
2022-10-25T17:31:17.217Z,100481.22
2022-10-25T17:33:45.218Z,100472.53
2022-10-25T17:36:17.048Z,100457.66
2022-10-25T17:38:55.453Z,100471.53
2022-10-25T17:41:23.562Z,100472.16
2022-10-25T17:44:02.456Z,100434.88
2022-10-25T17:46:34.685Z,100428.72
2022-10-25T17:49:06.682Z,100462.25
2022-10-25T17:51:38.114Z,100422.50
2022-10-25T17:54:11.177Z,100426.72
2022-10-25T17:56:39.559Z,100419.63
2022-10-25T17:59:10.273Z,100423.38
2022-10-25T18:01:40.135Z,100406.41
2022-10-25T18:04:09.504Z,100412.16
2022-10-25T18:06:47.651Z,100417.63
2022-10-25T18:09:19.284Z,100426.47
2022-10-25T18:11:48.731Z,100394.44
2022-10-25T18:14:17.150Z,100403.53
2022-10-25T18:16:47.552Z,100407.66
2022-10-25T18:19:17.441Z,100401.28
2022-10-25T18:21:49.913Z,100375.84
2022-10-25T18:24:27.378Z,100350.22
2022-10-25T18:27:35.966Z,100376.66
2022-10-25T18:30:20.107Z,100367.63
2022-10-25T18:32:49.287Z,100383.28
2022-10-25T18:35:26.824Z,100397.38
2022-10-25T18:37:57.136Z,100354.38
2022-10-25T18:40:27.241Z,100393.69
2022-10-25T18:42:55.987Z,100359.56
2022-10-25T18:45:31.506Z,100374.63
2022-10-25T18:48:40.023Z,100386.88
2022-10-25T18:51:10.289Z,100404.00
2022-10-25T18:53:57.859Z,100360.59
2022-10-25T18:56:34.324Z,100389.16
2022-10-25T18:59:19.618Z,100363.47
2022-10-25T19:01:48.056Z,100382.13
2022-10-25T19:04:34.069Z,100365.78
2022-10-25T19:07:09.532Z,100384.63
2022-10-25T19:09:40.062Z,100373.88
2022-10-25T19:12:28.276Z,100352.38
2022-10-25T19:14:56.666Z,100356.13
2022-10-25T19:17:36.375Z,100349.44
2022-10-25T19:22:58.702Z,100377.59
2022-10-25T19:25:31.569Z,100378.00
2022-10-25T19:28:04.974Z,100369.16
2022-10-25T19:30:48.526Z,100362.72
2022-10-25T19:33:18.852Z,100347.88
2022-10-25T19:35:48.783Z,100362.72
2022-10-25T19:38:16.915Z,100325.13
2022-10-25T19:41:31.391Z,100366.88
2022-10-25T19:44:03.385Z,100330.09
2022-10-25T19:46:31.953Z,100365.22
2022-10-25T19:49:01.332Z,100344.97
2022-10-25T19:51:29.689Z,100336.72
2022-10-25T19:54:01.483Z,100326.78
2022-10-25T19:56:29.643Z,100358.41
2022-10-25T19:58:57.918Z,100352.44
2022-10-25T20:01:33.332Z,100345.41
2022-10-25T20:06:54.619Z,100317.34
2022-10-25T20:12:12.387Z,100315.47
2022-10-25T20:14:42.950Z,100312.78
2022-10-25T20:17:18.877Z,100312.78
2022-10-25T20:19:50.296Z,100312.78
2022-10-25T20:22:27.232Z,100290.50
2022-10-25T20:24:55.333Z,100299.97
2022-10-25T20:27:25.862Z,100289.66
2022-10-25T20:30:01.239Z,100283.03
2022-10-25T20:32:30.816Z,100286.56
2022-10-25T20:34:58.867Z,100270.44
2022-10-25T20:37:30.551Z,100248.38
2022-10-25T20:39:58.680Z,100237.41
2022-10-25T20:42:29.270Z,100247.94
2022-10-25T20:44:57.507Z,100241.13
2022-10-25T20:47:25.434Z,100250.00
2022-10-25T20:49:57.413Z,100251.66
2022-10-25T20:52:28.158Z,100252.69
2022-10-25T20:55:03.758Z,100248.13
2022-10-25T20:57:48.908Z,100224.81
2022-10-25T21:00:20.542Z,100257.03
2022-10-25T21:02:55.801Z,100241.34
2022-10-25T21:05:27.605Z,100254.56
2022-10-25T21:07:57.309Z,100248.78
2022-10-25T21:10:27.757Z,100255.38
2022-10-25T21:12:55.707Z,100259.31
2022-10-25T21:15:23.747Z,100239.47
2022-10-25T21:17:51.807Z,100256.19
2022-10-25T21:20:21.722Z,100230.81
2022-10-25T21:22:56.551Z,100251.47
2022-10-25T21:25:26.808Z,100258.06
2022-10-25T21:28:00.675Z,100262.38
2022-10-25T21:30:29.502Z,100238.25
2022-10-25T21:32:57.572Z,100243.81
2022-10-25T21:35:25.724Z,100238.88
2022-10-25T21:37:56.860Z,100234.72
2022-10-25T21:40:25.071Z,100211.59
2022-10-25T21:42:55.398Z,100214.09
2022-10-25T21:45:23.336Z,100235.16
2022-10-25T21:47:51.707Z,100195.94
2022-10-25T21:50:19.947Z,100211.41
2022-10-25T21:52:50.994Z,100223.97
2022-10-25T21:55:26.218Z,100213.25
2022-10-25T21:57:54.732Z,100173.22
2022-10-25T22:00:23.022Z,100201.69
2022-10-25T22:02:51.152Z,100211.19
2022-10-25T22:05:19.235Z,100218.03
2022-10-25T22:07:47.558Z,100212.41
2022-10-25T22:10:15.810Z,100207.06
2022-10-25T22:12:45.439Z,100209.13
2022-10-25T22:15:15.370Z,100205.84
2022-10-25T22:17:47.027Z,100198.41
2022-10-25T22:20:15.173Z,100200.25
2022-10-25T22:22:43.739Z,100167.03
2022-10-25T22:25:17.654Z,100198.81
2022-10-25T22:27:51.606Z,100198.59
2022-10-25T22:30:24.717Z,100204.19
2022-10-25T22:32:52.903Z,100202.31
2022-10-25T22:35:21.223Z,100190.56
2022-10-25T22:37:52.705Z,100194.25
2022-10-25T22:40:20.773Z,100203.16
2022-10-25T22:42:52.616Z,100188.28
2022-10-25T22:45:23.631Z,100198.81
2022-10-25T22:48:07.406Z,100202.97
2022-10-25T22:50:36.462Z,100192.59
2022-10-25T22:53:10.831Z,100191.38
2022-10-25T22:55:38.886Z,100201.47
2022-10-25T23:01:07.348Z,100160.44
2022-10-25T23:03:39.931Z,100194.47
2022-10-25T23:06:11.892Z,100199.00
2022-10-25T23:08:42.222Z,100182.72
2022-10-25T23:14:14.672Z,100192.63
2022-10-25T23:16:45.512Z,100200.47
2022-10-25T23:19:13.519Z,100192.19
2022-10-25T23:21:42.566Z,100212.03
2022-10-25T23:24:10.589Z,100200.03
2022-10-25T23:26:41.292Z,100197.53
2022-10-25T23:29:13.075Z,100203.53
2022-10-25T23:31:41.464Z,100207.47
2022-10-25T23:34:26.591Z,100193.44
2022-10-25T23:36:57.104Z,100203.97
2022-10-25T23:39:25.294Z,100212.44
2022-10-25T23:41:57.607Z,100189.94
2022-10-25T23:44:29.263Z,100208.50
2022-10-25T23:46:57.931Z,100209.38
2022-10-25T23:49:27.019Z,100211.22
2022-10-25T23:51:59.090Z,100222.78
2022-10-25T23:54:27.061Z,100216.97
2022-10-25T23:56:55.167Z,100230.41
